Time;durP1;ratioP1;P1;durP2;ratioP2;P2;SDS_P1;SDS_P2;PMS_P1;PMS_P2;Temp;Humidity;BMP_temperature;BMP_pressure;BME280_temperature;BME280_humidity;BME280_pressure;Samples;Min_cycle;Max_cycle;Signal;HPM_P1;HPM_P2
2022/12/12 00:01:37;;;;;;;2.77;2.57;;;;;;;;;;6285261;28;20263;-81
2022/12/12 00:04:42;;;;;;;2.77;2.67;;;;;;;;;;6285233;28;20314;-82
2022/12/12 00:07:50;;;;;;;2.90;2.80;;;;;;;;;;6267468;28;20302;-82
2022/12/12 00:10:56;;;;;;;2.57;2.37;;;;;;;;;;6287327;28;20287;-81
2022/12/12 00:14:02;;;;;;;3.77;3.10;;;;;;;;;;6288388;28;20302;-81
2022/12/12 00:17:07;;;;;;;2.20;2.20;;;;;;;;;;6252679;28;20275;-81
2022/12/12 00:20:13;;;;;;;2.90;2.80;;;;;;;;;;6285698;28;20278;-81
2022/12/12 00:23:22;;;;;;;2.47;2.40;;;;;;;;;;6283125;28;20303;-81
2022/12/12 00:26:29;;;;;;;2.90;2.80;;;;;;;;;;6284556;28;20282;-81
2022/12/12 00:29:39;;;;;;;2.90;2.80;;;;;;;;;;6285300;28;20297;-81
2022/12/12 00:32:44;;;;;;;2.60;2.50;;;;;;;;;;6286101;28;20285;-82
2022/12/12 00:35:53;;;;;;;2.97;2.77;;;;;;;;;;6286014;28;20273;-81
2022/12/12 00:39:00;;;;;;;2.80;2.70;;;;;;;;;;6268975;28;20306;-80
2022/12/12 00:42:06;;;;;;;2.97;2.87;;;;;;;;;;6291847;28;20265;-81
2022/12/12 00:45:11;;;;;;;2.77;2.67;;;;;;;;;;6301237;28;20229;-81
2022/12/12 00:48:18;;;;;;;2.77;2.67;;;;;;;;;;6301570;28;20254;-81
2022/12/12 00:51:25;;;;;;;3.00;2.90;;;;;;;;;;6284387;28;20291;-79
2022/12/12 00:54:33;;;;;;;3.10;2.93;;;;;;;;;;6302624;28;20238;-82
2022/12/12 00:57:38;;;;;;;3.43;3.23;;;;;;;;;;6301203;28;20297;-81
2022/12/12 01:00:44;;;;;;;3.17;3.07;;;;;;;;;;6255769;28;20290;-81
2022/12/12 01:03:50;;;;;;;2.90;2.80;;;;;;;;;;6267187;28;20541;-81
2022/12/12 01:06:56;;;;;;;1.90;1.90;;;;;;;;;;6263545;28;20277;-81
2022/12/12 01:10:06;;;;;;;2.87;2.77;;;;;;;;;;6264086;28;20267;-81
2022/12/12 01:13:12;;;;;;;3.10;3.00;;;;;;;;;;6246273;28;20306;-81
2022/12/12 01:16:17;;;;;;;3.17;3.00;;;;;;;;;;6264364;28;20547;-80
2022/12/12 01:19:23;;;;;;;3.20;3.10;;;;;;;;;;6263276;28;20402;-81
2022/12/12 01:22:30;;;;;;;3.27;3.03;;;;;;;;;;6245711;28;20298;-80
2022/12/12 01:25:38;;;;;;;3.30;3.10;;;;;;;;;;6246239;28;20286;-80
2022/12/12 01:28:45;;;;;;;3.30;3.20;;;;;;;;;;6263248;28;20296;-80
2022/12/12 01:31:50;;;;;;;2.40;2.40;;;;;;;;;;6263516;28;20324;-81
2022/12/12 01:34:55;;;;;;;3.87;3.57;;;;;;;;;;6239082;28;20274;-81
2022/12/12 01:38:00;;;;;;;3.50;3.30;;;;;;;;;;6245747;28;20297;-81
2022/12/12 01:41:09;;;;;;;3.40;3.20;;;;;;;;;;6263714;28;20579;-80
2022/12/12 01:44:42;;;;;;;3.10;3.10;;;;;;;;;;6262595;28;20307;-81
2022/12/12 01:47:49;;;;;;;2.93;2.83;;;;;;;;;;6263175;28;20307;-82
2022/12/12 01:50:57;;;;;;;3.07;2.97;;;;;;;;;;6244808;28;20302;-80
2022/12/12 01:54:06;;;;;;;3.03;2.93;;;;;;;;;;6263078;28;20477;-81
2022/12/12 01:57:15;;;;;;;3.40;3.30;;;;;;;;;;6262503;28;20286;-80
2022/12/12 02:00:21;;;;;;;3.17;3.07;;;;;;;;;;6263332;28;20559;-80
2022/12/12 02:03:30;;;;;;;3.30;3.20;;;;;;;;;;6244939;28;20303;-80
2022/12/12 02:06:36;;;;;;;2.83;2.63;;;;;;;;;;6269599;28;20463;-80
2022/12/12 02:09:44;;;;;;;3.60;3.50;;;;;;;;;;6287813;28;20302;-81
2022/12/12 02:12:50;;;;;;;3.40;3.20;;;;;;;;;;6269794;28;20305;-81
2022/12/12 02:16:02;;;;;;;3.40;3.30;;;;;;;;;;6288172;28;20358;-81
2022/12/12 02:19:35;;;;;;;3.37;3.17;;;;;;;;;;6269444;28;20290;-81
2022/12/12 02:22:58;;;;;;;3.80;3.60;;;;;;;;;;6267987;28;20302;-81
2022/12/12 02:26:31;;;;;;;2.90;2.80;;;;;;;;;;6288357;28;20271;-81
2022/12/12 02:30:09;;;;;;;3.90;3.70;;;;;;;;;;6287460;28;20284;-81
2022/12/12 02:33:29;;;;;;;4.90;3.33;;;;;;;;;;6235075;28;20299;-79
2022/12/12 02:36:42;;;;;;;3.27;3.17;;;;;;;;;;6287314;28;20270;-81
2022/12/12 02:40:00;;;;;;;3.77;3.50;;;;;;;;;;6268882;28;20443;-80
2022/12/12 02:43:11;;;;;;;4.07;3.77;;;;;;;;;;6269109;28;20309;-80
2022/12/12 02:46:21;;;;;;;4.30;3.63;;;;;;;;;;6286498;28;20268;-81
2022/12/12 02:49:33;;;;;;;4.07;3.87;;;;;;;;;;6252069;28;20305;-80
2022/12/12 02:52:43;;;;;;;3.43;3.27;;;;;;;;;;6286295;28;20310;-81
2022/12/12 02:55:48;;;;;;;3.77;3.50;;;;;;;;;;6286204;28;20271;-81
2022/12/12 02:58:57;;;;;;;3.70;3.50;;;;;;;;;;6286464;28;20320;-82
2022/12/12 03:02:39;;;;;;;3.60;3.37;;;;;;;;;;6286115;28;20277;-81
2022/12/12 03:09:29;;;;;;;3.67;3.47;;;;;;;;;;6260605;28;20300;-81
2022/12/12 03:12:42;;;;;;;4.33;3.93;;;;;;;;;;6218921;28;20315;-81
2022/12/12 03:15:54;;;;;;;4.20;3.90;;;;;;;;;;6218899;28;20280;-81
2022/12/12 03:19:07;;;;;;;4.17;3.77;;;;;;;;;;6218593;28;20305;-81
2022/12/12 03:22:19;;;;;;;3.63;3.47;;;;;;;;;;6236201;28;20272;-82
2022/12/12 03:25:31;;;;;;;4.10;3.80;;;;;;;;;;6217741;28;20275;-81
2022/12/12 03:28:39;;;;;;;3.83;3.60;;;;;;;;;;6235749;28;20333;-81
2022/12/12 03:31:49;;;;;;;3.70;3.50;;;;;;;;;;6219055;28;20292;-81
2022/12/12 03:34:58;;;;;;;3.60;3.40;;;;;;;;;;6202754;28;20304;-80
2022/12/12 03:38:07;;;;;;;4.00;3.47;;;;;;;;;;6218235;28;20299;-80
2022/12/12 03:41:15;;;;;;;3.43;3.33;;;;;;;;;;6236099;28;20272;-80
2022/12/12 03:44:22;;;;;;;4.03;3.67;;;;;;;;;;6236160;28;20293;-80
2022/12/12 03:47:32;;;;;;;4.37;3.43;;;;;;;;;;6235663;28;20305;-80
2022/12/12 03:50:41;;;;;;;4.10;3.90;;;;;;;;;;6219012;28;20290;-81
2022/12/12 03:53:52;;;;;;;3.50;3.30;;;;;;;;;;6235657;28;20292;-81
2022/12/12 03:57:00;;;;;;;4.43;3.83;;;;;;;;;;6235419;28;20570;-81
2022/12/12 04:00:14;;;;;;;3.87;3.57;;;;;;;;;;6218828;28;20272;-82
2022/12/12 04:03:27;;;;;;;3.43;3.33;;;;;;;;;;6256022;28;20493;-81
2022/12/12 04:06:35;;;;;;;3.80;3.60;;;;;;;;;;6284281;28;20267;-81
2022/12/12 04:13:12;;;;;;;4.10;3.77;;;;;;;;;;6244129;28;20295;-81
2022/12/12 04:16:23;;;;;;;3.87;3.67;;;;;;;;;;6285493;28;20274;-81
2022/12/12 04:23:17;;;;;;;3.40;3.30;;;;;;;;;;6284230;28;20271;-81
2022/12/12 04:26:39;;;;;;;3.93;3.73;;;;;;;;;;6284387;28;20272;-82
2022/12/12 04:29:48;;;;;;;5.70;3.97;;;;;;;;;;6284005;28;20295;-81
2022/12/12 04:33:01;;;;;;;3.97;3.67;;;;;;;;;;6266518;28;20294;-82
2022/12/12 04:36:08;;;;;;;3.93;3.63;;;;;;;;;;6284691;28;20448;-81
2022/12/12 04:39:15;;;;;;;3.97;3.70;;;;;;;;;;6241110;28;20310;-81
2022/12/12 04:42:24;;;;;;;3.80;3.47;;;;;;;;;;6242482;28;20587;-81
2022/12/12 04:45:33;;;;;;;3.37;3.17;;;;;;;;;;6259394;28;20294;-81
2022/12/12 04:48:41;;;;;;;3.80;3.60;;;;;;;;;;6259488;28;20368;-81
2022/12/12 04:51:52;;;;;;;3.37;3.27;;;;;;;;;;6242410;28;20271;-81
2022/12/12 04:55:01;;;;;;;4.30;3.60;;;;;;;;;;6241635;28;20371;-81
2022/12/12 04:58:08;;;;;;;3.33;3.13;;;;;;;;;;6259241;28;20592;-80
2022/12/12 05:01:17;;;;;;;3.50;3.30;;;;;;;;;;6242728;28;20267;-80
2022/12/12 05:04:27;;;;;;;3.23;3.03;;;;;;;;;;6258771;28;20553;-80
2022/12/12 05:07:36;;;;;;;3.90;3.63;;;;;;;;;;6242059;28;20496;-81
2022/12/12 05:10:46;;;;;;;3.97;3.70;;;;;;;;;;6244354;28;20286;-81
2022/12/12 05:13:55;;;;;;;3.90;3.60;;;;;;;;;;6250906;28;20554;-81
2022/12/12 05:17:03;;;;;;;3.63;3.50;;;;;;;;;;6250319;28;20462;-81
2022/12/12 05:20:11;;;;;;;3.73;3.43;;;;;;;;;;6250122;28;20298;-81
2022/12/12 05:23:17;;;;;;;3.67;3.40;;;;;;;;;;6265314;28;20298;-81
2022/12/12 05:26:26;;;;;;;3.90;3.70;;;;;;;;;;6266511;28;20267;-81
2022/12/12 05:29:44;;;;;;;3.77;3.50;;;;;;;;;;6266082;28;20298;-81
2022/12/12 05:32:49;;;;;;;4.03;3.77;;;;;;;;;;6266096;28;20296;-80
2022/12/12 05:35:54;;;;;;;4.17;3.97;;;;;;;;;;6284427;28;20274;-81
2022/12/12 05:38:59;;;;;;;3.83;3.60;;;;;;;;;;6286012;28;20298;-81
2022/12/12 05:42:09;;;;;;;4.33;4.03;;;;;;;;;;6291002;28;20266;-82
2022/12/12 05:45:18;;;;;;;3.70;3.40;;;;;;;;;;6289822;28;20350;-82
2022/12/12 05:48:25;;;;;;;3.67;3.37;;;;;;;;;;6287865;28;20302;-81
2022/12/12 05:51:30;;;;;;;3.87;3.57;;;;;;;;;;6271415;28;20268;-81
2022/12/12 05:54:39;;;;;;;4.03;3.73;;;;;;;;;;6288111;28;20598;-81
2022/12/12 05:57:45;;;;;;;3.70;3.40;;;;;;;;;;6269981;28;20274;-82
2022/12/12 06:00:54;;;;;;;3.53;3.33;;;;;;;;;;6288280;28;20348;-82
2022/12/12 06:04:06;;;;;;;3.47;3.37;;;;;;;;;;6269978;28;20311;-81
2022/12/12 06:07:12;;;;;;;3.50;3.20;;;;;;;;;;6288505;28;20270;-82
2022/12/12 06:10:18;;;;;;;2.63;2.53;;;;;;;;;;6287708;28;20315;-82
2022/12/12 06:13:26;;;;;;;2.73;2.67;;;;;;;;;;6245429;28;20311;-81
2022/12/12 06:16:35;;;;;;;3.10;2.90;;;;;;;;;;6245523;28;20414;-82
2022/12/12 06:19:44;;;;;;;3.40;3.20;;;;;;;;;;6245258;28;20291;-82
2022/12/12 06:22:49;;;;;;;3.07;2.87;;;;;;;;;;6244761;28;20276;-81
2022/12/12 06:25:58;;;;;;;3.17;3.07;;;;;;;;;;6245697;28;20538;-81
2022/12/12 06:29:03;;;;;;;2.90;2.80;;;;;;;;;;6244609;28;20301;-81
2022/12/12 06:32:20;;;;;;;3.40;3.30;;;;;;;;;;6245546;28;20283;-80
2022/12/12 06:35:27;;;;;;;3.43;3.30;;;;;;;;;;6261572;28;20443;-82
2022/12/12 06:38:33;;;;;;;3.97;3.60;;;;;;;;;;6261544;28;20306;-82
2022/12/12 06:41:41;;;;;;;3.90;3.70;;;;;;;;;;6245748;28;20273;-80
2022/12/12 06:44:47;;;;;;;4.30;3.90;;;;;;;;;;6262739;28;20299;-81
2022/12/12 06:47:56;;;;;;;4.47;4.17;;;;;;;;;;6263145;28;20279;-81
2022/12/12 06:51:07;;;;;;;5.03;4.20;;;;;;;;;;6263547;28;20359;-80
2022/12/12 06:54:14;;;;;;;5.63;3.90;;;;;;;;;;6262783;28;20295;-81
2022/12/12 06:57:22;;;;;;;4.00;3.80;;;;;;;;;;6264213;28;20284;-80
2022/12/12 07:00:27;;;;;;;4.10;3.80;;;;;;;;;;6263249;28;20298;-79
2022/12/12 07:03:33;;;;;;;6.53;3.67;;;;;;;;;;6244084;28;20292;-80
2022/12/12 07:06:38;;;;;;;4.40;4.20;;;;;;;;;;6245620;28;20279;-80
2022/12/12 07:09:47;;;;;;;4.47;4.13;;;;;;;;;;6245410;28;20321;-80
2022/12/12 07:12:52;;;;;;;4.70;4.30;;;;;;;;;;6228988;28;20272;-82
2022/12/12 07:16:02;;;;;;;4.70;4.20;;;;;;;;;;6261707;28;20317;-80
2022/12/12 07:19:09;;;;;;;4.90;4.50;;;;;;;;;;6243809;28;20291;-81
2022/12/12 07:22:15;;;;;;;4.60;4.30;;;;;;;;;;6244178;28;20356;-81
2022/12/12 07:25:20;;;;;;;8.17;4.90;;;;;;;;;;6243132;28;20598;-81
2022/12/12 07:28:25;;;;;;;4.37;4.00;;;;;;;;;;6261580;28;20299;-80
2022/12/12 07:31:33;;;;;;;5.00;4.60;;;;;;;;;;6262455;28;20275;-81
2022/12/12 07:34:49;;;;;;;4.10;3.80;;;;;;;;;;6243905;28;20303;-80
2022/12/12 07:37:58;;;;;;;4.70;4.20;;;;;;;;;;6261553;28;20275;-82
2022/12/12 07:41:04;;;;;;;5.10;4.67;;;;;;;;;;6245051;28;20280;-81
2022/12/12 07:44:12;;;;;;;5.43;4.70;;;;;;;;;;6244215;28;20587;-81
2022/12/12 07:47:17;;;;;;;4.70;4.30;;;;;;;;;;6244146;28;20355;-80
2022/12/12 07:50:26;;;;;;;4.53;4.07;;;;;;;;;;6227764;28;20306;-81
2022/12/12 07:53:32;;;;;;;4.57;4.17;;;;;;;;;;6260214;28;20297;-82
2022/12/12 07:56:40;;;;;;;5.00;4.50;;;;;;;;;;6242136;28;20299;-82
2022/12/12 07:59:49;;;;;;;4.60;4.27;;;;;;;;;;6260029;28;20295;-82
2022/12/12 08:02:54;;;;;;;4.23;3.93;;;;;;;;;;6259860;28;20584;-81
2022/12/12 08:06:01;;;;;;;4.87;3.97;;;;;;;;;;6247459;28;20302;-82
2022/12/12 08:09:06;;;;;;;4.40;4.00;;;;;;;;;;6267113;28;20306;-81
2022/12/12 08:12:13;;;;;;;4.00;3.80;;;;;;;;;;6251055;28;20274;-81
2022/12/12 08:15:19;;;;;;;4.63;4.23;;;;;;;;;;6251739;28;20572;-82
2022/12/12 08:18:25;;;;;;;3.90;3.70;;;;;;;;;;6283894;28;20306;-81
2022/12/12 08:21:43;;;;;;;5.10;4.60;;;;;;;;;;6265183;28;20282;-82
2022/12/12 08:24:49;;;;;;;6.67;4.60;;;;;;;;;;6267382;28;20298;-81
2022/12/12 08:27:54;;;;;;;4.17;3.87;;;;;;;;;;6284889;28;20274;-81
2022/12/12 08:31:00;;;;;;;5.10;4.60;;;;;;;;;;6286358;28;20270;-81
2022/12/12 08:34:06;;;;;;;4.43;3.97;;;;;;;;;;6285673;28;20304;-81
2022/12/12 08:37:17;;;;;;;4.20;3.90;;;;;;;;;;6285906;28;20270;-81
2022/12/12 08:40:23;;;;;;;4.13;3.80;;;;;;;;;;6267671;28;20315;-81
2022/12/12 08:43:31;;;;;;;3.93;3.73;;;;;;;;;;6287520;28;20322;-82
2022/12/12 08:46:47;;;;;;;4.03;3.73;;;;;;;;;;6272708;28;20278;-81
2022/12/12 08:50:07;;;;;;;4.37;4.07;;;;;;;;;;6269492;28;20298;-81
2022/12/12 08:53:22;;;;;;;4.30;4.00;;;;;;;;;;6268314;28;20305;-81
2022/12/12 08:56:33;;;;;;;4.00;3.70;;;;;;;;;;6268355;28;20487;-81
2022/12/12 08:59:38;;;;;;;3.97;3.77;;;;;;;;;;6285009;28;20296;-81
2022/12/12 09:02:43;;;;;;;5.13;4.00;;;;;;;;;;6285363;28;20282;-81
2022/12/12 09:05:49;;;;;;;4.27;3.97;;;;;;;;;;6285270;28;20303;-81
2022/12/12 09:08:56;;;;;;;4.30;4.00;;;;;;;;;;6266799;28;20490;-81
2022/12/12 09:12:02;;;;;;;4.80;4.40;;;;;;;;;;6285370;28;20263;-81
2022/12/12 09:15:12;;;;;;;3.70;3.50;;;;;;;;;;6269676;28;20298;-81
2022/12/12 09:18:36;;;;;;;5.37;3.67;;;;;;;;;;6274380;28;20310;-81
2022/12/12 09:21:53;;;;;;;4.90;4.50;;;;;;;;;;6256111;28;20298;-83
2022/12/12 09:25:00;;;;;;;5.20;4.80;;;;;;;;;;6288410;28;20592;-81
2022/12/12 09:28:08;;;;;;;5.87;5.27;;;;;;;;;;6255732;28;20303;-83
2022/12/12 09:31:18;;;;;;;9.13;6.20;;;;;;;;;;6289466;28;20290;-81
2022/12/12 09:34:25;;;;;;;7.87;5.37;;;;;;;;;;6254391;28;20613;-81
2022/12/12 09:37:31;;;;;;;4.67;4.27;;;;;;;;;;6289915;28;20292;-82
2022/12/12 09:40:47;;;;;;;4.57;4.17;;;;;;;;;;6271107;28;20303;-82
2022/12/12 09:43:56;;;;;;;4.57;3.90;;;;;;;;;;6288817;28;20313;-82
2022/12/12 09:47:07;;;;;;;4.33;4.03;;;;;;;;;;6288648;28;20276;-82
2022/12/12 09:50:19;;;;;;;4.13;3.83;;;;;;;;;;6270579;28;20290;-82
2022/12/12 09:53:27;;;;;;;4.17;3.90;;;;;;;;;;6271092;28;20314;-82
2022/12/12 09:56:37;;;;;;;3.67;3.40;;;;;;;;;;6289023;28;20291;-82
2022/12/12 09:59:45;;;;;;;3.97;3.77;;;;;;;;;;6270280;28;20300;-82
2022/12/12 10:03:04;;;;;;;3.67;3.47;;;;;;;;;;6286421;28;20438;-82
2022/12/12 10:06:11;;;;;;;3.40;3.30;;;;;;;;;;6287928;28;20300;-81
2022/12/12 10:09:53;;;;;;;2.30;2.30;;;;;;;;;;6287721;28;20476;-81
2022/12/12 10:13:02;;;;;;;3.20;3.10;;;;;;;;;;6270165;28;20259;-81
2022/12/12 10:16:10;;;;;;;3.23;2.97;;;;;;;;;;6287669;28;20303;-81
2022/12/12 10:19:21;;;;;;;4.30;4.00;;;;;;;;;;6287362;28;20302;-82
2022/12/12 10:22:32;;;;;;;3.50;3.20;;;;;;;;;;6270004;28;20271;-82
2022/12/12 10:25:43;;;;;;;2.67;2.67;;;;;;;;;;6269942;28;20302;-81
2022/12/12 10:28:52;;;;;;;3.27;3.03;;;;;;;;;;6269494;28;20322;-81
2022/12/12 10:32:04;;;;;;;3.17;2.97;;;;;;;;;;6269478;28;20562;-81
2022/12/12 10:35:18;;;;;;;5.37;3.27;;;;;;;;;;6268298;28;20302;-81
2022/12/12 10:38:43;;;;;;;3.47;3.20;;;;;;;;;;6286866;28;20303;-82
2022/12/12 10:41:51;;;;;;;3.33;3.23;;;;;;;;;;6287403;28;20272;-82
2022/12/12 10:45:11;;;;;;;3.37;3.10;;;;;;;;;;6269864;28;20302;-81
2022/12/12 10:48:16;;;;;;;3.47;3.37;;;;;;;;;;6288067;28;20291;-82
2022/12/12 10:51:29;;;;;;;3.07;2.90;;;;;;;;;;6287826;28;20448;-82
2022/12/12 10:54:41;;;;;;;3.77;3.40;;;;;;;;;;6268293;28;20602;-81
2022/12/12 10:57:46;;;;;;;3.03;2.83;;;;;;;;;;6277709;28;20295;-80
2022/12/12 11:01:01;;;;;;;2.83;2.57;;;;;;;;;;6268971;28;20271;-81
2022/12/12 11:04:07;;;;;;;3.93;3.73;;;;;;;;;;6267493;28;20303;-83
2022/12/12 11:07:18;;;;;;;3.77;3.57;;;;;;;;;;6268311;28;20276;-81
2022/12/12 11:10:29;;;;;;;3.97;3.77;;;;;;;;;;6234647;28;20311;-81
2022/12/12 11:13:59;;;;;;;4.27;3.97;;;;;;;;;;6294281;28;20294;-82
2022/12/12 11:17:34;;;;;;;3.67;3.57;;;;;;;;;;6281290;28;20323;-82
2022/12/12 11:20:46;;;;;;;3.63;3.43;;;;;;;;;;6293676;28;20307;-81
2022/12/12 11:23:54;;;;;;;3.20;3.10;;;;;;;;;;6270952;28;20310;-81
2022/12/12 11:27:00;;;;;;;3.87;3.57;;;;;;;;;;6284586;28;20296;-82
2022/12/12 11:30:19;;;;;;;3.53;3.43;;;;;;;;;;6268513;28;20306;-80
2022/12/12 11:33:43;;;;;;;3.40;3.30;;;;;;;;;;6263700;28;20307;-82
2022/12/12 11:37:03;;;;;;;3.33;3.13;;;;;;;;;;6272300;28;20291;-80
2022/12/12 11:40:22;;;;;;;3.40;3.30;;;;;;;;;;6250460;28;20303;-84
2022/12/12 11:43:31;;;;;;;3.63;3.53;;;;;;;;;;6285618;28;20354;-81
2022/12/12 11:46:36;;;;;;;4.17;3.97;;;;;;;;;;6267908;28;20432;-82
2022/12/12 11:49:46;;;;;;;4.57;4.27;;;;;;;;;;6268015;28;20619;-81
2022/12/12 11:52:56;;;;;;;3.73;3.50;;;;;;;;;;6268781;28;20432;-80
2022/12/12 11:56:18;;;;;;;3.30;3.10;;;;;;;;;;6267904;28;20348;-81
2022/12/12 12:00:01;;;;;;;3.00;2.80;;;;;;;;;;6285139;28;20450;-82
2022/12/12 12:03:23;;;;;;;3.33;3.23;;;;;;;;;;6284413;28;20294;-81
2022/12/12 12:06:40;;;;;;;4.70;4.30;;;;;;;;;;6285502;28;20586;-81
2022/12/12 12:09:52;;;;;;;3.37;3.27;;;;;;;;;;6284885;28;20580;-80
2022/12/12 12:13:07;;;;;;;4.30;4.00;;;;;;;;;;6284507;28;20270;-80
2022/12/12 12:16:17;;;;;;;3.87;3.67;;;;;;;;;;6285002;28;20286;-81
2022/12/12 12:19:28;;;;;;;3.83;3.60;;;;;;;;;;6267116;28;20291;-81
2022/12/12 12:22:45;;;;;;;4.13;3.90;;;;;;;;;;6284898;28;20272;-81
2022/12/12 12:25:55;;;;;;;3.87;3.67;;;;;;;;;;6250764;28;20568;-80
2022/12/12 12:29:19;;;;;;;3.77;3.47;;;;;;;;;;6284637;28;20298;-81
2022/12/12 12:32:32;;;;;;;3.90;3.70;;;;;;;;;;6266820;28;20284;-81
2022/12/12 12:35:47;;;;;;;4.87;3.23;;;;;;;;;;6266081;28;20304;-81
2022/12/12 12:39:05;;;;;;;3.63;3.43;;;;;;;;;;6266419;28;20295;-81
2022/12/12 12:42:22;;;;;;;4.20;3.03;;;;;;;;;;6284733;28;20273;-82
2022/12/12 12:45:36;;;;;;;3.17;2.97;;;;;;;;;;6266078;28;20303;-79
2022/12/12 12:48:43;;;;;;;4.10;3.90;;;;;;;;;;6283829;28;20303;-76
2022/12/12 12:51:50;;;;;;;4.07;3.77;;;;;;;;;;6289666;28;20542;-78
2022/12/12 12:54:58;;;;;;;3.63;3.30;;;;;;;;;;6254538;28;20295;-77
2022/12/12 12:58:17;;;;;;;2.90;2.90;;;;;;;;;;6288690;28;20291;-81
2022/12/12 13:01:25;;;;;;;3.23;3.13;;;;;;;;;;6272030;28;20275;-81
2022/12/12 13:04:41;;;;;;;5.10;3.30;;;;;;;;;;6264306;28;20293;-82
2022/12/12 13:07:52;;;;;;;3.23;3.03;;;;;;;;;;6264138;28;20278;-82
2022/12/12 13:11:03;;;;;;;3.10;2.80;;;;;;;;;;6247109;28;20272;-82
2022/12/12 13:14:16;;;;;;;2.93;2.73;;;;;;;;;;6247281;28;20295;-82
2022/12/12 13:17:33;;;;;;;2.60;2.50;;;;;;;;;;6247382;28;20344;-81
2022/12/12 13:20:41;;;;;;;3.00;2.83;;;;;;;;;;6246613;28;20293;-81
2022/12/12 13:23:54;;;;;;;2.63;2.37;;;;;;;;;;6263511;28;20312;-81
2022/12/12 13:27:06;;;;;;;2.30;2.20;;;;;;;;;;6230379;28;20285;-82
2022/12/12 13:30:20;;;;;;;2.97;2.80;;;;;;;;;;6246487;28;20300;-81
2022/12/12 13:33:35;;;;;;;3.10;2.93;;;;;;;;;;6230645;28;20305;-80
2022/12/12 13:36:42;;;;;;;2.93;2.80;;;;;;;;;;6265341;28;20277;-83
2022/12/12 13:39:59;;;;;;;2.80;2.70;;;;;;;;;;6263765;28;20299;-81
2022/12/12 13:43:07;;;;;;;2.70;2.60;;;;;;;;;;6264189;28;20387;-81
2022/12/12 13:46:36;;;;;;;2.40;2.30;;;;;;;;;;6264358;28;20266;-81
2022/12/12 13:49:47;;;;;;;3.10;2.90;;;;;;;;;;6246585;28;20304;-82
2022/12/12 13:53:16;;;;;;;2.63;2.43;;;;;;;;;;6246985;28;20458;-81
2022/12/12 13:56:35;;;;;;;2.63;2.53;;;;;;;;;;6277339;28;20318;-80
2022/12/12 14:00:13;;;;;;;2.63;2.53;;;;;;;;;;6277021;28;20300;-81
2022/12/12 14:03:29;;;;;;;3.10;2.90;;;;;;;;;;6259325;28;20289;-81
2022/12/12 14:06:37;;;;;;;3.00;2.90;;;;;;;;;;6283625;28;20268;-81
2022/12/12 14:09:45;;;;;;;3.37;2.37;;;;;;;;;;6302586;28;20249;-80
2022/12/12 14:12:53;;;;;;;3.53;2.30;;;;;;;;;;6270464;28;20275;-80
2022/12/12 14:16:04;;;;;;;3.37;2.70;;;;;;;;;;6288601;28;20315;-82
2022/12/12 14:19:24;;;;;;;2.93;2.83;;;;;;;;;;6287188;28;20311;-81
2022/12/12 14:22:50;;;;;;;3.03;2.80;;;;;;;;;;6269726;28;20286;-82
2022/12/12 14:25:55;;;;;;;2.77;2.67;;;;;;;;;;6284450;28;20283;-79
2022/12/12 14:29:23;;;;;;;2.50;2.40;;;;;;;;;;6286721;28;20302;-80
2022/12/12 14:32:43;;;;;;;2.37;2.27;;;;;;;;;;6287392;28;20272;-81
2022/12/12 14:35:57;;;;;;;2.73;2.63;;;;;;;;;;6287267;28;20282;-80
2022/12/12 14:39:07;;;;;;;2.97;2.77;;;;;;;;;;6287652;28;20587;-83
2022/12/12 14:42:25;;;;;;;2.43;2.23;;;;;;;;;;6287880;28;20274;-82
2022/12/12 14:45:56;;;;;;;2.93;2.83;;;;;;;;;;6286916;28;20272;-82
2022/12/12 14:49:06;;;;;;;2.40;2.30;;;;;;;;;;6269428;28;20294;-84
2022/12/12 14:52:20;;;;;;;2.43;2.23;;;;;;;;;;6287571;28;20267;-81
2022/12/12 14:55:29;;;;;;;2.73;2.30;;;;;;;;;;6284699;28;20264;-83
2022/12/12 14:58:39;;;;;;;3.37;3.20;;;;;;;;;;6286996;28;20316;-80
2022/12/12 15:01:45;;;;;;;2.17;2.17;;;;;;;;;;6286845;28;20566;-83
2022/12/12 15:04:53;;;;;;;2.37;2.17;;;;;;;;;;6255870;28;20310;-82
2022/12/12 15:08:03;;;;;;;2.40;2.30;;;;;;;;;;6290498;28;20314;-82
2022/12/12 15:11:14;;;;;;;2.33;2.30;;;;;;;;;;6286933;28;20446;-82
2022/12/12 15:14:24;;;;;;;2.33;2.23;;;;;;;;;;6268886;28;20296;-82
2022/12/12 15:17:31;;;;;;;2.33;2.23;;;;;;;;;;6269140;28;20277;-81
2022/12/12 15:20:37;;;;;;;1.23;1.23;;;;;;;;;;6252016;28;20619;-82
2022/12/12 15:23:48;;;;;;;1.83;1.83;;;;;;;;;;6268693;28;20235;-83
2022/12/12 15:26:57;;;;;;;2.30;2.13;;;;;;;;;;6244523;28;20283;-81
2022/12/12 15:30:12;;;;;;;2.73;1.90;;;;;;;;;;6269359;28;20295;-81
2022/12/12 15:33:19;;;;;;;1.90;1.80;;;;;;;;;;6285922;28;20314;-82
2022/12/12 15:36:27;;;;;;;3.07;1.90;;;;;;;;;;6286182;28;20343;-82
2022/12/12 15:39:33;;;;;;;1.93;1.90;;;;;;;;;;6285232;28;20295;-81
2022/12/12 15:42:40;;;;;;;1.87;1.87;;;;;;;;;;6267902;28;20263;-82
2022/12/12 15:45:50;;;;;;;1.70;1.70;;;;;;;;;;6284355;28;20275;-81
2022/12/12 15:48:56;;;;;;;3.93;3.57;;;;;;;;;;6267331;28;20291;-82
2022/12/12 15:52:12;;;;;;;1.90;1.80;;;;;;;;;;6284886;28;20278;-82
2022/12/12 15:55:23;;;;;;;1.90;1.80;;;;;;;;;;6284864;28;20314;-82
2022/12/12 15:58:30;;;;;;;4.43;2.00;;;;;;;;;;6267354;28;20300;-82
2022/12/12 16:01:35;;;;;;;1.90;1.90;;;;;;;;;;6267519;28;20277;-81
2022/12/12 16:04:41;;;;;;;2.17;2.17;;;;;;;;;;6284573;28;20295;-81
2022/12/12 16:07:48;;;;;;;2.53;2.40;;;;;;;;;;6284935;28;20275;-82
2022/12/12 16:10:55;;;;;;;2.43;2.33;;;;;;;;;;6285769;28;20264;-81
2022/12/12 16:14:03;;;;;;;1.97;1.87;;;;;;;;;;6277804;28;20298;-82
2022/12/12 16:17:12;;;;;;;2.03;1.83;;;;;;;;;;6267872;28;20276;-80
2022/12/12 16:20:20;;;;;;;2.40;2.30;;;;;;;;;;6266303;28;20298;-82
2022/12/12 16:23:40;;;;;;;2.83;1.83;;;;;;;;;;6283885;28;20288;-82
2022/12/12 16:26:47;;;;;;;2.00;1.90;;;;;;;;;;6284508;28;20274;-81
2022/12/12 16:29:52;;;;;;;2.13;2.10;;;;;;;;;;6267242;28;20486;-81
2022/12/12 16:32:58;;;;;;;2.43;1.67;;;;;;;;;;6267207;28;20281;-81
2022/12/12 16:36:06;;;;;;;1.73;1.73;;;;;;;;;;6267578;28;20267;-80
2022/12/12 16:39:12;;;;;;;2.07;1.97;;;;;;;;;;6284123;28;20305;-82
2022/12/12 16:42:20;;;;;;;1.77;1.77;;;;;;;;;;6285387;28;20276;-81
2022/12/12 16:45:26;;;;;;;2.10;2.00;;;;;;;;;;6266913;28;20305;-82
2022/12/12 16:48:34;;;;;;;2.67;2.50;;;;;;;;;;6283519;28;20302;-80
2022/12/12 16:51:41;;;;;;;2.23;2.10;;;;;;;;;;6284460;28;20283;-81
2022/12/12 16:54:47;;;;;;;2.53;2.30;;;;;;;;;;6250232;28;20306;-80
2022/12/12 16:58:02;;;;;;;2.83;2.47;;;;;;;;;;6266271;28;20282;-83
2022/12/12 17:01:10;;;;;;;2.37;2.17;;;;;;;;;;6284144;28;20311;-81
2022/12/12 17:04:29;;;;;;;2.10;2.00;;;;;;;;;;6281704;28;20318;-82
2022/12/12 17:07:43;;;;;;;2.43;2.23;;;;;;;;;;6241948;28;20283;-82
2022/12/12 17:10:52;;;;;;;2.17;2.03;;;;;;;;;;6242054;28;20264;-81
2022/12/12 17:14:20;;;;;;;2.43;2.23;;;;;;;;;;6242136;28;20603;-82
2022/12/12 17:17:40;;;;;;;2.47;2.30;;;;;;;;;;6259289;28;20286;-82
2022/12/12 17:20:48;;;;;;;7.50;2.00;;;;;;;;;;6241242;28;20295;-81
2022/12/12 17:23:54;;;;;;;2.13;1.93;;;;;;;;;;6258856;28;20289;-81
2022/12/12 17:27:01;;;;;;;1.80;1.80;;;;;;;;;;6259304;28;20278;-81
2022/12/12 17:30:16;;;;;;;2.33;2.27;;;;;;;;;;6258983;28;20302;-81
2022/12/12 17:33:27;;;;;;;2.53;2.40;;;;;;;;;;6258647;28;20466;-83
2022/12/12 17:36:34;;;;;;;2.10;2.10;;;;;;;;;;6229336;28;20279;-82
2022/12/12 17:39:42;;;;;;;2.47;2.23;;;;;;;;;;6230762;28;20487;-82
2022/12/12 17:42:54;;;;;;;3.33;3.03;;;;;;;;;;6263423;28;20569;-82
2022/12/12 17:46:17;;;;;;;1.77;1.77;;;;;;;;;;6233640;28;20292;-83
2022/12/12 17:49:23;;;;;;;1.80;1.73;;;;;;;;;;6263055;28;20295;-81
2022/12/12 17:52:30;;;;;;;2.60;2.40;;;;;;;;;;6245945;28;20276;-80
2022/12/12 17:55:41;;;;;;;1.80;1.70;;;;;;;;;;6245806;28;20305;-81
2022/12/12 17:59:08;;;;;;;1.83;1.83;;;;;;;;;;6245943;28;20292;-82
2022/12/12 18:02:20;;;;;;;1.70;1.70;;;;;;;;;;6214301;28;20315;-82
2022/12/12 18:05:40;;;;;;;3.73;2.03;;;;;;;;;;6246207;28;20304;-82
2022/12/12 18:08:49;;;;;;;3.67;2.10;;;;;;;;;;6263272;28;20472;-82
2022/12/12 18:11:55;;;;;;;3.50;1.83;;;;;;;;;;6263107;28;20265;-83
2022/12/12 18:15:01;;;;;;;2.00;1.90;;;;;;;;;;6244782;28;20304;-82
2022/12/12 18:18:12;;;;;;;1.87;1.77;;;;;;;;;;6261524;28;20291;-84
2022/12/12 18:21:21;;;;;;;1.73;1.73;;;;;;;;;;6245106;28;20364;-82
2022/12/12 18:24:48;;;;;;;2.33;2.23;;;;;;;;;;6261486;28;20330;-82
2022/12/12 18:27:54;;;;;;;2.27;2.17;;;;;;;;;;6261178;28;20293;-82
2022/12/12 18:31:01;;;;;;;1.80;1.80;;;;;;;;;;6261842;28;20318;-83
2022/12/12 18:34:13;;;;;;;2.30;2.10;;;;;;;;;;6261906;28;20298;-81
2022/12/12 18:37:21;;;;;;;2.73;2.20;;;;;;;;;;6262478;28;20552;-81
2022/12/12 18:40:29;;;;;;;2.13;2.03;;;;;;;;;;6262735;28;20308;-81
2022/12/12 18:43:39;;;;;;;2.63;2.43;;;;;;;;;;6260808;28;20307;-82
2022/12/12 18:46:46;;;;;;;4.77;2.43;;;;;;;;;;6261177;28;20553;-82
2022/12/12 18:49:54;;;;;;;4.40;1.77;;;;;;;;;;6260401;28;20296;-82
2022/12/12 18:53:17;;;;;;;2.27;2.07;;;;;;;;;;6260518;28;20300;-79
2022/12/12 18:56:24;;;;;;;2.90;2.17;;;;;;;;;;6262601;28;20471;-80
2022/12/12 18:59:30;;;;;;;2.00;1.90;;;;;;;;;;6261566;28;20298;-81
2022/12/12 19:02:37;;;;;;;3.47;2.10;;;;;;;;;;6258247;28;20316;-79
2022/12/12 19:05:44;;;;;;;2.77;2.00;;;;;;;;;;6275691;28;20316;-81
2022/12/12 19:08:50;;;;;;;2.40;2.13;;;;;;;;;;6268390;28;20311;-79
2022/12/12 19:11:55;;;;;;;2.10;2.00;;;;;;;;;;6299299;28;20266;-76
2022/12/12 19:15:07;;;;;;;1.77;1.77;;;;;;;;;;6310922;28;20301;-80